»·PEaware :: SWA1019 KPHX-KELP

SWA1019 :: KPHX-KELP

FLIGHT INFORMATION

Flight Status: Arrived
Operator:
Southwest Airlines
More flights by this operator :: More flights under this callsign
Pilot: Michael C. (16705)
Aircraft: BOEING 737-800
(B738)
More flights by this aircraft type
Origin: KPHX Phoenix Sky Harbor Intl
United States
Destination: KELP El Paso Intl
United States
More flights between these airports :: More routes between these airports
Route: +KATMN5 PHASE TEEES MOLLY4
File this flight plan on PilotEdge
Remarks: PBN / A1B1C1D1L1O1S1 NAV / RNVD1E2A1 DOF / 171002 REG / N838NN RVR / 200 PER / C
Altitude:
(Current/Filed)
350ft
Speed:
(Current/Filed)
453kts
Departed: 02-Oct-17 02:02 PM
Arrived: 02-Oct-17 02:58 PM
Distance/Time
Traveled:
300nm/0:56
Distance/Time
To Go:
Arrived

Flight Plot

Page will automatically refresh every two minutes.

Flight plan parsing failed; only flown route is shown


Map Options




Map Legend


Flown Route
Filed Route
Departure Airport
Arrival Airport
Navaid (VOR, NDB)
Fix

Horizontal Profiles

Position Reports

Time Latitude Longitude Heading Altitude Ground
Speed
02-Oct-17 13:41 33.433952 -111.999899 89 1143ft 0kts
02-Oct-17 13:42 33.433952 -111.999899 89 1143ft 0kts
02-Oct-17 13:43 33.433952 -111.999899 89 1143ft 0kts
02-Oct-17 13:44 33.433952 -111.999899 89 1143ft 0kts
02-Oct-17 13:45 33.433952 -111.999899 89 1143ft 0kts
02-Oct-17 13:46 33.433952 -111.999899 89 1143ft 0kts
02-Oct-17 13:47 33.433952 -111.999899 89 1143ft 0kts
02-Oct-17 13:48 33.433952 -111.999899 89 1143ft 0kts
02-Oct-17 13:49 33.433952 -111.999899 89 1143ft 0kts
02-Oct-17 13:50 33.433952 -111.999899 89 1143ft 0kts
02-Oct-17 13:51 33.433952 -111.999899 89 1143ft 0kts
02-Oct-17 13:52 33.433952 -111.999899 89 1143ft 0kts
02-Oct-17 13:53 33.433952 -111.999899 89 1143ft 0kts
02-Oct-17 13:54 33.433952 -111.999899 89 1143ft 0kts
02-Oct-17 13:55 33.433952 -111.999899 89 1143ft 0kts
02-Oct-17 13:56 33.433952 -111.999899 89 1143ft 0kts
02-Oct-17 13:57 33.434093 -112.000449 150 1143ft 2kts
02-Oct-17 13:58 33.434293 -112.000502 179 1143ft 0kts
02-Oct-17 13:59 33.434293 -112.000502 179 1143ft 0kts
02-Oct-17 14:00 33.433960 -112.000501 179 1143ft 0kts
02-Oct-17 14:01 33.432636 -112.000613 185 1143ft 8kts
02-Oct-17 14:02 33.432170 -111.997955 86 1143ft 13kts
02-Oct-17 14:03 33.431910 -111.993643 150 1143ft 0kts
02-Oct-17 14:04 33.431908 -111.993641 150 1143ft 0kts
02-Oct-17 14:05 33.431027 -111.994209 267 1143ft 10kts
02-Oct-17 14:06 33.431171 -112.031556 263 2262ft 167kts
02-Oct-17 14:07 33.408236 -112.083701 237 4829ft 224kts
02-Oct-17 14:08 33.382115 -112.128784 215 6545ft 265kts
02-Oct-17 14:09 33.382115 -112.128784 215 6545ft 265kts
02-Oct-17 14:10 33.326631 -112.147734 187 8025ft 278kts
02-Oct-17 14:11 33.256821 -112.110653 133 11213ft 321kts
02-Oct-17 14:12 33.218990 -111.997805 110 12875ft 400kts
02-Oct-17 14:13 33.184266 -111.867673 111 15487ft 421kts
02-Oct-17 14:14 33.147583 -111.731387 111 17854ft 441kts
02-Oct-17 14:15 33.108799 -111.589806 111 20060ft 456kts
02-Oct-17 14:16 33.065675 -111.445283 119 22039ft 465kts
02-Oct-17 14:17 32.996825 -111.314697 127 23847ft 470kts
02-Oct-17 14:18 32.923886 -111.183601 127 25470ft 480kts
02-Oct-17 14:19 32.849661 -111.049066 126 26957ft 489kts
02-Oct-17 14:20 32.774575 -110.912737 126 28319ft 498kts
02-Oct-17 14:21 32.697595 -110.774312 126 29684ft 502kts
02-Oct-17 14:22 32.635300 -110.627447 107 31445ft 504kts
02-Oct-17 14:23 32.605292 -110.465528 104 33050ft 501kts
02-Oct-17 14:24 32.575908 -110.303824 104 34530ft 499kts
02-Oct-17 14:25 32.546587 -110.142085 104 34817ft 502kts
02-Oct-17 14:26 32.517030 -109.981573 105 34818ft 499kts
02-Oct-17 14:27 32.487106 -109.820814 105 34834ft 498kts
02-Oct-17 14:28 32.457063 -109.660685 105 34837ft 498kts
02-Oct-17 14:29 32.431431 -109.524877 105 34841ft 500kts
02-Oct-17 14:30 32.401383 -109.365955 105 34854ft 500kts
02-Oct-17 14:31 32.370405 -109.205053 105 34871ft 500kts
02-Oct-17 14:32 32.348842 -109.041997 98 34890ft 505kts
02-Oct-17 14:33 32.333211 -108.877031 99 34910ft 506kts
02-Oct-17 14:34 32.316804 -108.711413 99 34928ft 507kts
02-Oct-17 14:35 32.300502 -108.546242 99 34944ft 506kts
02-Oct-17 14:36 32.283443 -108.381010 100 34953ft 507kts
02-Oct-17 14:37 32.265796 -108.215542 100 34422ft 502kts
02-Oct-17 14:38 32.247327 -108.052221 100 31374ft 502kts
02-Oct-17 14:39 32.228481 -107.889875 99 28664ft 489kts
02-Oct-17 14:40 32.210264 -107.733513 99 26254ft 473kts
02-Oct-17 14:41 32.192557 -107.582437 100 23921ft 457kts
02-Oct-17 14:42 32.175188 -107.435761 100 21702ft 442kts
02-Oct-17 14:43 32.158871 -107.294288 101 19489ft 429kts
02-Oct-17 14:44 32.142549 -107.157399 101 17339ft 415kts
02-Oct-17 14:45 32.129033 -107.046255 101 15623ft 404kts
02-Oct-17 14:46 32.108264 -106.918918 109 13679ft 387kts
02-Oct-17 14:47 32.081111 -106.797850 108 12057ft 368kts
02-Oct-17 14:48 32.054857 -106.689502 110 11724ft 322kts
02-Oct-17 14:49 32.031370 -106.593840 111 11433ft 284kts
02-Oct-17 14:50 32.010690 -106.510239 111 10343ft 265kts
02-Oct-17 14:51 31.991254 -106.427949 108 8706ft 258kts
02-Oct-17 14:52 31.971956 -106.346008 108 7844ft 247kts
02-Oct-17 14:53 31.954729 -106.271635 108 6934ft 230kts
02-Oct-17 14:54 31.937944 -106.199426 108 6462ft 223kts
02-Oct-17 14:55 31.900840 -106.149780 167 6518ft 217kts
02-Oct-17 14:56 31.843767 -106.131224 168 6486ft 203kts
02-Oct-17 14:57 31.808639 -106.161343 248 6436ft 182kts
02-Oct-17 14:58 31.794384 -106.218259 258 5857ft 179kts
02-Oct-17 14:59 31.795008 -106.277371 272 5228ft 182kts
02-Oct-17 15:00 31.797610 -106.333352 274 4461ft 162kts
02-Oct-17 15:01 31.801333 -106.375971 272 3966ft 72kts
02-Oct-17 15:02 31.801087 -106.381794 187 3966ft 12kts
02-Oct-17 15:03 31.800657 -106.381841 181 3966ft 0kts
02-Oct-17 15:04 31.800120 -106.381906 203 3966ft 9kts
02-Oct-17 15:05 31.800086 -106.386629 272 3966ft 16kts
02-Oct-17 15:06 31.800507 -106.391178 308 3966ft 12kts
02-Oct-17 15:07 31.801186 -106.394406 271 3966ft 9kts
02-Oct-17 15:08 31.800160 -106.395531 178 3966ft 2kts
02-Oct-17 15:09 31.800153 -106.395531 178 3966ft 0kts

Navigation Log

Ident Type
Flight plan parsing failed, navigation log unavailable